Time;durP1;ratioP1;P1;durP2;ratioP2;P2;SDS_P1;SDS_P2;PMS_P1;PMS_P2;Temp;Humidity;BMP_temperature;BMP_pressure;BME280_temperature;BME280_humidity;BME280_pressure;Samples;Min_cycle;Max_cycle;Signal;HPM_P1;HPM_P2
2023/03/07 00:00:59;;;;;;;29.45;12.68;;;;;;;3.58;100.00;99209.38;20814257;28;20077;-72
2023/03/07 00:11:00;;;;;;;24.85;12.35;;;;;;;3.62;100.00;99212.81;20815704;28;20493;-72
2023/03/07 00:21:02;;;;;;;24.38;12.60;;;;;;;3.69;100.00;99190.31;20813964;28;20050;-72
2023/03/07 00:31:03;;;;;;;24.95;12.25;;;;;;;3.71;100.00;99198.94;20812497;28;20120;-72
2023/03/07 00:41:04;;;;;;;26.08;12.75;;;;;;;3.76;100.00;99195.44;20812753;28;20557;-71
2023/03/07 00:51:05;;;;;;;23.20;11.68;;;;;;;3.77;100.00;99191.97;20810825;28;20056;-71
2023/03/07 01:01:08;;;;;;;24.15;11.80;;;;;;;3.69;100.00;99188.63;20810617;28;20267;-71
2023/03/07 01:11:09;;;;;;;23.83;12.07;;;;;;;3.59;100.00;99172.28;20810002;28;20057;-71
2023/03/07 01:21:11;;;;;;;26.08;12.77;;;;;;;3.53;100.00;99166.28;20806172;28;20041;-71
2023/03/07 01:31:12;;;;;;;26.45;13.00;;;;;;;3.46;100.00;99169.81;20807225;28;20049;-71
2023/03/07 01:41:13;;;;;;;28.35;14.35;;;;;;;3.24;100.00;99159.56;20821751;28;20049;-72
2023/03/07 01:51:15;;;;;;;28.77;14.35;;;;;;;3.03;100.00;99164.88;20823977;28;20123;-71
2023/03/07 02:01:16;;;;;;;34.28;15.07;;;;;;;2.85;100.00;99149.47;20807552;28;20079;-73
2023/03/07 02:11:17;;;;;;;31.45;14.77;;;;;;;2.66;100.00;99141.78;20841272;23;20957;-81
2023/03/07 02:21:19;;;;;;;34.03;16.10;;;;;;;2.53;100.00;99133.19;20831409;28;20049;-81
2023/03/07 02:31:20;;;;;;;39.83;16.65;;;;;;;2.60;100.00;99123.72;20858890;28;20315;-80
2023/03/07 02:41:21;;;;;;;35.47;16.33;;;;;;;2.39;100.00;99113.44;20838818;28;20084;-81
2023/03/07 02:51:23;;;;;;;38.53;17.02;;;;;;;2.31;100.00;99109.19;20822168;28;20037;-80
2023/03/07 03:01:24;;;;;;;38.22;16.48;;;;;;;2.33;100.00;99090.25;20819757;28;20045;-80
2023/03/07 03:11:28;;;;;;;36.80;16.63;;;;;;;2.30;100.00;99079.06;20827233;28;20434;-81
2023/03/07 03:21:30;;;;;;;38.50;17.23;;;;;;;2.41;100.00;99081.59;20816875;28;20057;-80
2023/03/07 03:31:31;;;;;;;34.70;15.45;;;;;;;2.46;100.00;99066.94;20824307;28;20049;-80
2023/03/07 03:41:32;;;;;;;30.45;14.43;;;;;;;2.55;100.00;99060.88;20831576;28;20054;-81
2023/03/07 03:51:34;;;;;;;32.08;13.90;;;;;;;2.65;100.00;99054.78;20814634;28;20064;-80
2023/03/07 04:01:35;;;;;;;30.10;14.00;;;;;;;2.59;100.00;99034.16;20819838;28;20046;-81
2023/03/07 04:11:37;;;;;;;30.00;14.45;;;;;;;2.76;100.00;99044.38;20809599;28;20054;-80
2023/03/07 04:21:39;;;;;;;31.95;14.25;;;;;;;2.72;100.00;99025.44;20816810;28;20076;-80
2023/03/07 04:31:41;;;;;;;30.58;13.15;;;;;;;2.90;100.00;99015.88;20823284;28;20049;-81
2023/03/07 04:41:42;;;;;;;25.63;12.73;;;;;;;2.95;100.00;99011.50;20823848;28;20113;-81
2023/03/07 04:51:43;;;;;;;26.83;12.93;;;;;;;3.00;100.00;99002.00;20812518;28;20072;-80
2023/03/07 05:01:45;;;;;;;24.80;12.07;;;;;;;3.04;100.00;98988.19;20809586;28;20501;-80
2023/03/07 05:11:46;;;;;;;24.55;10.95;;;;;;;3.04;100.00;98980.41;20828203;28;20169;-81
2023/03/07 05:21:48;;;;;;;24.38;11.25;;;;;;;3.12;100.00;98968.28;20811776;28;20168;-80
2023/03/07 05:31:49;;;;;;;23.73;11.88;;;;;;;3.17;100.00;98961.34;20818001;28;20057;-81
2023/03/07 05:41:50;;;;;;;21.65;10.98;;;;;;;3.21;100.00;98952.69;20799726;28;20145;-81
2023/03/07 05:51:52;;;;;;;21.70;10.90;;;;;;;3.36;100.00;98937.91;20809646;28;20053;-81
2023/03/07 06:01:55;;;;;;;22.80;10.65;;;;;;;3.32;100.00;98929.31;20800394;28;20124;-80
2023/03/07 06:11:56;;;;;;;25.77;11.35;;;;;;;3.27;100.00;98924.19;20784463;28;20053;-81
2023/03/07 06:21:58;;;;;;;23.50;10.45;;;;;;;3.37;100.00;98918.91;20786785;28;20465;-81
2023/03/07 06:31:59;;;;;;;21.88;10.55;;;;;;;3.38;100.00;98930.97;20808995;28;20088;-81
2023/03/07 06:42:00;;;;;;;23.65;11.50;;;;;;;3.57;100.00;98917.81;20803835;28;20058;-79
2023/03/07 06:52:02;;;;;;;21.48;10.68;;;;;;;3.52;100.00;98921.31;20789662;28;20133;-80
2023/03/07 07:02:03;;;;;;;24.77;10.95;;;;;;;3.61;100.00;98941.94;20803738;28;20046;-80
2023/03/07 07:12:05;;;;;;;26.30;10.85;;;;;;;3.67;100.00;98944.44;20801500;28;20498;-79
2023/03/07 07:22:10;;;;;;;23.88;11.13;;;;;;;3.93;100.00;98940.69;20822456;28;20402;-80
2023/03/07 07:32:12;;;;;;;25.88;11.48;;;;;;;4.08;100.00;98946.53;20799566;28;20533;-79
2023/03/07 07:42:13;;;;;;;22.17;10.88;;;;;;;4.21;100.00;98934.25;20796688;28;20061;-79
2023/03/07 07:52:14;;;;;;;24.58;12.32;;;;;;;4.45;100.00;98942.56;20820477;23;20053;-73
2023/03/07 08:02:16;;;;;;;21.42;10.00;;;;;;;4.56;100.00;98936.38;20908480;23;20045;-70
2023/03/07 08:12:17;;;;;;;19.85;9.63;;;;;;;4.80;100.00;98929.94;20782117;28;20144;-71
2023/03/07 08:22:18;;;;;;;19.48;9.75;;;;;;;5.11;100.00;98932.03;20763745;28;20509;-69
2023/03/07 08:32:20;;;;;;;20.65;10.18;;;;;;;5.34;100.00;98922.09;20770578;28;20065;-69
2023/03/07 08:42:21;;;;;;;19.63;10.52;;;;;;;5.45;100.00;98924.47;20775300;28;20442;-67
2023/03/07 08:52:22;;;;;;;28.13;12.18;;;;;;;5.34;100.00;98911.72;20768372;28;20055;-67
2023/03/07 09:02:24;;;;;;;25.00;11.23;;;;;;;5.36;100.00;98907.34;20768418;28;20056;-67
2023/03/07 09:12:25;;;;;;;20.25;9.60;;;;;;;5.54;100.00;98900.94;20774104;28;20053;-67
2023/03/07 09:22:26;;;;;;;17.90;8.68;;;;;;;5.63;100.00;98902.50;20773035;28;20492;-67
2023/03/07 09:32:28;;;;;;;17.20;8.18;;;;;;;5.97;100.00;98883.69;20765497;28;20049;-69
2023/03/07 09:42:29;;;;;;;18.30;8.85;;;;;;;5.99;100.00;98874.97;20769835;28;20699;-70
2023/03/07 09:52:30;;;;;;;17.38;8.30;;;;;;;6.38;96.16;98847.22;20766335;28;20088;-69
2023/03/07 10:02:32;;;;;;;17.15;7.88;;;;;;;6.41;93.53;98852.34;20769782;28;20338;-69
2023/03/07 10:12:33;;;;;;;14.90;7.65;;;;;;;6.69;91.29;98847.31;20764908;28;20054;-68
2023/03/07 10:22:34;;;;;;;13.55;7.25;;;;;;;6.46;88.51;98834.03;20768438;28;20564;-69
2023/03/07 10:32:36;;;;;;;15.77;7.82;;;;;;;6.86;78.84;98817.44;20768713;28;20057;-69
2023/03/07 10:42:39;;;;;;;17.35;8.07;;;;;;;7.06;71.70;98815.16;20762789;28;20057;-69
2023/03/07 10:52:41;;;;;;;13.90;7.00;;;;;;;6.79;71.89;98808.94;20760728;28;20050;-70
2023/03/07 11:02:44;;;;;;;15.40;7.60;;;;;;;7.14;69.51;98818.41;20785806;28;20053;-69
2023/03/07 11:12:45;;;;;;;16.15;7.70;;;;;;;7.31;69.12;98809.28;20775782;28;20080;-69
2023/03/07 11:22:46;;;;;;;15.25;7.28;;;;;;;7.09;68.46;98804.69;20770037;28;20410;-69
2023/03/07 11:32:48;;;;;;;15.25;7.68;;;;;;;7.41;68.45;98795.09;20779439;28;20093;-69
2023/03/07 11:42:49;;;;;;;14.68;7.55;;;;;;;7.68;67.25;98793.44;20777924;28;20100;-68
2023/03/07 11:52:51;;;;;;;16.63;7.93;;;;;;;7.63;67.63;98788.38;20777596;28;20108;-69
2023/03/07 12:02:53;;;;;;;13.80;6.85;;;;;;;7.52;66.35;98782.63;20776250;28;20056;-69
2023/03/07 12:12:54;;;;;;;13.85;6.70;;;;;;;7.53;66.81;98770.47;20773627;28;20053;-69
2023/03/07 12:22:55;;;;;;;14.43;6.80;;;;;;;7.57;67.30;98757.31;20777406;28;20061;-69
2023/03/07 12:32:57;;;;;;;13.35;6.05;;;;;;;7.46;63.35;98744.59;20772016;28;20049;-69
2023/03/07 12:42:58;;;;;;;11.68;6.15;;;;;;;7.31;64.12;98721.59;20777162;28;20511;-70
2023/03/07 12:52:59;;;;;;;14.18;6.45;;;;;;;7.68;63.68;98702.28;20772362;28;20085;-70
2023/03/07 13:03:01;;;;;;;12.20;7.05;;;;;;;8.05;61.25;98698.47;20775274;28;20497;-70
2023/03/07 13:13:02;;;;;;;13.10;4.78;;;;;;;8.02;58.18;98716.84;20768584;28;20498;-68
2023/03/07 13:23:03;;;;;;;10.52;4.82;;;;;;;8.08;58.00;98694.03;20768948;28;20061;-70
2023/03/07 13:33:06;;;;;;;11.35;5.47;;;;;;;8.36;57.71;98688.78;20767221;28;20075;-68
2023/03/07 13:43:07;;;;;;;11.18;5.50;;;;;;;8.07;58.81;98696.69;20768043;28;20057;-69
2023/03/07 13:53:08;;;;;;;11.40;4.82;;;;;;;7.68;59.53;98710.94;20772587;28;20203;-69
2023/03/07 14:03:11;;;;;;;9.93;5.40;;;;;;;7.69;60.79;98717.84;20768642;28;20505;-69
2023/03/07 14:13:12;;;;;;;13.10;5.05;;;;;;;7.48;61.35;98722.88;20770645;28;20420;-70
2023/03/07 14:23:13;;;;;;;13.32;6.43;;;;;;;7.34;64.61;98734.56;20763914;28;20088;-70
2023/03/07 14:33:15;;;;;;;12.77;6.55;;;;;;;7.33;66.39;98739.78;20763759;28;20057;-70
2023/03/07 14:43:16;;;;;;;12.25;6.22;;;;;;;7.28;69.95;98737.34;20762798;28;20065;-70
2023/03/07 14:53:17;;;;;;;12.70;6.28;;;;;;;7.10;70.75;98759.53;20765680;28;20112;-69
2023/03/07 15:03:19;;;;;;;19.35;8.38;;;;;;;6.92;71.13;98749.63;20765784;28;20057;-70
2023/03/07 15:13:20;;;;;;;13.85;6.75;;;;;;;7.24;70.05;98740.06;20768687;28;20547;-70
2023/03/07 15:23:22;;;;;;;14.35;6.53;;;;;;;7.18;71.16;98725.47;20765969;28;20050;-69
2023/03/07 15:33:24;;;;;;;15.50;6.82;;;;;;;7.54;68.81;98725.28;20772289;28;20053;-71
2023/03/07 15:43:25;;;;;;;12.82;6.93;;;;;;;7.38;69.50;98723.16;20774542;28;20057;-68
2023/03/07 15:53:26;;;;;;;14.32;6.90;;;;;;;6.98;70.98;98707.81;20772362;28;20141;-68
2023/03/07 16:03:28;;;;;;;14.60;7.45;;;;;;;6.95;70.68;98713.13;20764072;28;20045;-68
2023/03/07 16:13:29;;;;;;;15.50;7.53;;;;;;;7.02;70.28;98703.38;20777071;28;20729;-68
2023/03/07 16:23:31;;;;;;;15.38;8.10;;;;;;;6.92;72.06;98703.66;20779793;28;20099;-68
2023/03/07 16:33:32;;;;;;;14.52;7.45;;;;;;;6.70;69.98;98720.72;20777408;28;20718;-68
2023/03/07 16:43:33;;;;;;;14.52;7.50;;;;;;;6.74;69.73;98711.94;20774652;28;20057;-68
2023/03/07 16:53:35;;;;;;;16.33;7.15;;;;;;;6.68;69.86;98712.97;20775069;28;20520;-68
2023/03/07 17:03:36;;;;;;;14.27;7.20;;;;;;;6.64;70.03;98724.34;20768162;28;20555;-68
2023/03/07 17:13:37;;;;;;;14.82;7.90;;;;;;;6.51;70.15;98730.75;20766598;28;20153;-68
2023/03/07 17:23:39;;;;;;;14.35;7.43;;;;;;;6.51;70.28;98755.91;20764110;28;20501;-68
2023/03/07 17:33:40;;;;;;;15.70;7.93;;;;;;;6.38;71.28;98774.44;20764070;28;20469;-69
2023/03/07 17:43:41;;;;;;;13.52;7.22;;;;;;;6.39;70.85;98760.53;20776710;28;20064;-68
2023/03/07 17:53:43;;;;;;;17.27;7.28;;;;;;;6.39;70.69;98780.50;20772948;28;20136;-67
2023/03/07 18:03:44;;;;;;;14.77;6.72;;;;;;;6.38;70.11;98800.44;20777909;28;20172;-67
2023/03/07 18:13:46;;;;;;;13.10;7.15;;;;;;;6.32;70.76;98794.50;20777891;28;20068;-67
2023/03/07 18:23:48;;;;;;;13.10;6.60;;;;;;;6.19;71.85;98814.75;20778051;28;20585;-70
2023/03/07 18:33:50;;;;;;;18.02;7.47;;;;;;;6.21;71.20;98823.34;20766368;28;20077;-68
2023/03/07 18:43:51;;;;;;;16.60;7.07;;;;;;;6.13;71.26;98823.56;20765254;28;20061;-67
2023/03/07 18:53:52;;;;;;;15.23;7.70;;;;;;;6.19;71.30;98839.91;20791753;28;20053;-67
2023/03/07 19:03:54;;;;;;;15.48;6.65;;;;;;;6.10;70.86;98843.56;20798866;28;20045;-67
2023/03/07 19:13:55;;;;;;;15.85;6.97;;;;;;;6.08;70.93;98863.50;20809763;28;20505;-67
2023/03/07 19:23:56;;;;;;;12.80;6.18;;;;;;;6.10;70.26;98864.34;20798274;28;20141;-67
2023/03/07 19:33:58;;;;;;;14.73;6.68;;;;;;;6.01;71.88;98872.34;20791603;28;20533;-69
2023/03/07 19:43:59;;;;;;;14.68;6.68;;;;;;;5.99;71.50;98876.69;20802569;28;20057;-66
2023/03/07 19:54:01;;;;;;;13.80;6.65;;;;;;;6.01;70.50;98887.91;20807135;28;20448;-67
2023/03/07 20:04:06;;;;;;;12.25;6.03;;;;;;;5.91;71.25;98888.13;20794943;28;20743;-67
2023/03/07 20:14:07;;;;;;;13.30;6.95;;;;;;;5.97;70.59;98889.72;20792937;28;20081;-67
2023/03/07 20:24:09;;;;;;;14.00;6.53;;;;;;;5.79;71.62;98883.13;20798053;28;20513;-68
2023/03/07 20:34:10;;;;;;;16.88;7.97;;;;;;;5.79;71.65;98890.91;20792398;28;20056;-67
2023/03/07 20:44:11;;;;;;;11.98;6.18;;;;;;;5.78;71.12;98897.00;20795061;28;20494;-67
2023/03/07 20:54:13;;;;;;;13.48;6.85;;;;;;;5.59;71.34;98916.44;20800088;28;20053;-68
2023/03/07 21:04:16;;;;;;;12.43;6.40;;;;;;;5.45;70.99;98936.63;20800048;28;20050;-68
2023/03/07 21:14:18;;;;;;;14.45;6.25;;;;;;;5.41;70.91;98938.41;20795800;28;20203;-67
2023/03/07 21:24:19;;;;;;;13.27;6.55;;;;;;;5.49;70.83;98935.69;20798842;28;20427;-68
2023/03/07 21:34:20;;;;;;;13.95;6.22;;;;;;;5.43;71.26;98930.59;20797810;28;20061;-68
2023/03/07 21:44:22;;;;;;;15.23;6.88;;;;;;;5.39;70.97;98941.03;20796807;28;20050;-69
2023/03/07 21:54:23;;;;;;;13.68;6.80;;;;;;;5.48;70.88;98965.13;20796394;28;20512;-69
2023/03/07 22:04:24;;;;;;;13.48;6.30;;;;;;;5.51;70.28;98967.63;20794107;28;20053;-69
2023/03/07 22:14:26;;;;;;;14.00;6.57;;;;;;;5.43;70.32;98966.94;20792852;28;20099;-69
2023/03/07 22:24:27;;;;;;;12.88;6.47;;;;;;;5.42;69.83;98950.53;20793610;28;20439;-68
2023/03/07 22:34:28;;;;;;;14.10;6.47;;;;;;;5.46;69.40;98952.19;20793853;28;20057;-69
2023/03/07 22:44:30;;;;;;;16.08;6.40;;;;;;;5.47;69.00;98963.41;20809219;28;21300;-68
2023/03/07 22:54:32;;;;;;;15.63;7.03;;;;;;;5.54;68.52;98965.00;20810597;28;20619;-69
2023/03/07 23:04:33;;;;;;;14.73;7.00;;;;;;;5.53;68.05;98981.47;20809949;28;20053;-69
2023/03/07 23:14:34;;;;;;;14.63;7.05;;;;;;;5.64;68.15;98977.78;20810970;28;20045;-68
2023/03/07 23:24:36;;;;;;;15.23;7.53;;;;;;;5.55;68.91;98984.88;20810739;28;20403;-68
2023/03/07 23:34:37;;;;;;;13.35;6.93;;;;;;;5.49;69.28;98978.06;20809476;28;20064;-68
2023/03/07 23:44:39;;;;;;;18.88;7.70;;;;;;;5.50;69.04;98971.13;20807168;28;20485;-69
2023/03/07 23:54:40;;;;;;;17.98;8.30;;;;;;;5.38;70.86;98980.84;20807584;28;20417;-68
